Terminal Aerodrome Forecast
Issued by NWS Wilmington, OH

Home | Current Version | Previous Version | Text Only | Print | Product List | Glossary On
Versions: 1 2 3 4 5 6 7 8 9 10 11 12 13 14 15 16 17 18 19 20 21 22 23 24 25 26 27 28 29 30 31 32 33 34
000
FTUS41 KILN 011100
TAFDAY
TAF
KDAY 011138Z 0112/0212 12010KT P6SM SCT012 OVC100
      TEMPO 0112/0114 3SM -RAPL OVC015
     FM011900 15010KT 2SM -RA BKN008 OVC020
      TEMPO 0202/0205 23010KT 1SM -RA BKN012
     FM020500 29014G24KT P6SM OVC018
      TEMPO 0206/0210 5SM -SNRA OVC008=

USA.gov is the U.S. government's official web portal to all federal, state and local government web resources and services.